Time;durP1;ratioP1;P1;durP2;ratioP2;P2;SDS_P1;SDS_P2;PMS_P1;PMS_P2;Temp;Humidity;BMP_temperature;BMP_pressure;BME280_temperature;BME280_humidity;BME280_pressure;Samples;Min_cycle;Max_cycle;Signal;HPM_P1;HPM_P2
2023/01/28 00:01:26;;;;;;;8.23;6.60;;;;;;;-0.41;100.00;151265.75;4992614;28;20496;-92
2023/01/28 00:03:54;;;;;;;10.50;7.50;;;;;;;-0.34;100.00;151284.97;4995351;28;20443;-92
2023/01/28 00:06:20;;;;;;;12.53;8.33;;;;;;;-0.34;100.00;151284.97;4989465;28;20514;-92
2023/01/28 00:08:48;;;;;;;9.50;6.87;;;;;;;-0.33;100.00;151287.56;4995245;28;20453;-92
2023/01/28 00:11:15;;;;;;;9.10;6.23;;;;;;;-0.33;100.00;151287.56;4991120;28;20489;-92
2023/01/28 00:13:42;;;;;;;10.23;6.90;;;;;;;-0.33;100.00;151287.56;4979780;28;20512;-92
2023/01/28 00:16:09;;;;;;;8.73;6.63;;;;;;;-0.38;100.00;151273.44;4971367;28;20496;-91
2023/01/28 00:18:36;;;;;;;9.10;7.10;;;;;;;-0.33;100.00;151286.28;4999316;28;20788;-91
2023/01/28 00:21:06;;;;;;;8.43;6.90;;;;;;;-0.36;100.00;151279.88;4991899;28;20579;-92
2023/01/28 00:23:34;;;;;;;12.10;7.13;;;;;;;-0.31;100.00;151292.69;4982946;28;20517;-92
2023/01/28 00:26:02;;;;;;;10.37;6.57;;;;;;;-0.37;100.00;151276.03;4992633;28;20492;-91
2023/01/28 00:28:29;;;;;;;10.13;7.00;;;;;;;-0.31;100.00;151291.41;4972830;28;20804;-91
2023/01/28 00:30:56;;;;;;;8.70;7.00;;;;;;;-0.25;100.00;151306.81;4964235;28;20468;-92
2023/01/28 00:33:23;;;;;;;9.50;7.23;;;;;;;-0.27;100.00;151301.69;4977631;28;20441;-92
2023/01/28 00:35:58;;;;;;;6.77;5.50;;;;;;;-0.28;100.00;151300.41;4984339;28;20944;-92
2023/01/28 00:38:26;;;;;;;9.70;5.53;;;;;;;-0.23;100.00;151311.94;4974000;28;20541;-91
2023/01/28 00:40:53;;;;;;;9.27;6.70;;;;;;;-0.30;100.00;151295.28;5002117;28;20481;-91
2023/01/28 00:43:19;;;;;;;9.47;7.00;;;;;;;-0.33;100.00;151286.28;4993555;28;20449;-91
2023/01/28 00:45:46;;;;;;;10.40;6.73;;;;;;;-0.30;100.00;151293.97;4994949;28;20488;-92
2023/01/28 00:48:13;;;;;;;7.73;5.50;;;;;;;-0.35;100.00;151282.44;5002443;28;20458;-91
2023/01/28 00:50:40;;;;;;;9.00;6.60;;;;;;;-0.37;100.00;151277.28;4992518;28;20512;-92
2023/01/28 00:53:07;;;;;;;8.53;6.50;;;;;;;-0.32;100.00;151290.09;4992301;28;20492;-92
2023/01/28 00:55:35;;;;;;;8.50;6.27;;;;;;;-0.35;100.00;151282.44;4991721;28;20448;-91
2023/01/28 00:58:01;;;;;;;8.13;6.07;;;;;;;-0.37;100.00;151277.28;4989750;28;20442;-91
2023/01/28 01:00:28;;;;;;;11.37;7.53;;;;;;;-0.31;100.00;151292.69;4991085;28;20599;-92
2023/01/28 01:02:54;;;;;;;9.63;6.00;;;;;;;-0.34;100.00;151283.69;4992299;28;20456;-92
2023/01/28 01:05:22;;;;;;;9.33;6.10;;;;;;;-0.31;100.00;151292.69;4993962;28;20457;-91
2023/01/28 01:07:49;;;;;;;8.33;6.50;;;;;;;-0.34;100.00;151283.69;5008251;28;20466;-93
2023/01/28 01:10:18;;;;;;;8.50;6.23;;;;;;;-0.31;100.00;151292.69;4991924;28;20477;-92
2023/01/28 01:12:48;;;;;;;8.27;5.60;;;;;;;-0.32;100.00;151290.09;4977674;28;20500;-92
2023/01/28 01:15:15;;;;;;;7.93;5.20;;;;;;;-0.26;100.00;151304.22;4981864;28;20450;-91
2023/01/28 01:17:44;;;;;;;8.63;5.70;;;;;;;-0.31;100.00;151292.69;4986844;28;20443;-92
2023/01/28 01:20:13;;;;;;;10.70;7.03;;;;;;;-0.26;100.00;151304.22;4973071;28;20547;-92
2023/01/28 01:22:40;;;;;;;8.07;5.73;;;;;;;-0.34;100.00;151284.97;5007060;28;20459;-92
2023/01/28 01:25:07;;;;;;;9.70;6.30;;;;;;;-0.32;100.00;151288.84;4992760;28;20786;-92
2023/01/28 01:27:36;;;;;;;8.97;6.07;;;;;;;-0.22;100.00;151314.50;4991866;28;20484;-92
2023/01/28 01:30:06;;;;;;;8.13;6.00;;;;;;;-0.23;100.00;151311.94;4988909;28;21023;-92
2023/01/28 01:32:34;;;;;;;10.50;7.07;;;;;;;-0.31;100.00;151292.69;4991921;28;20471;-91
2023/01/28 01:35:01;;;;;;;8.70;6.27;;;;;;;-0.27;100.00;151301.69;4999372;28;20612;-92
2023/01/28 01:37:28;;;;;;;8.43;6.00;;;;;;;-0.25;100.00;151308.09;4991462;28;20482;-92
2023/01/28 01:39:56;;;;;;;8.10;6.00;;;;;;;-0.24;100.00;151309.38;4993285;28;20479;-92
2023/01/28 01:42:22;;;;;;;9.00;6.40;;;;;;;-0.25;100.00;151308.09;4991728;28;20472;-91
2023/01/28 01:44:56;;;;;;;7.60;6.00;;;;;;;-0.28;100.00;151300.41;4972663;28;20987;-92
2023/01/28 01:47:27;;;;;;;7.70;5.97;;;;;;;-0.30;100.00;151295.28;4964257;28;20450;-91
2023/01/28 01:49:54;;;;;;;9.13;6.00;;;;;;;-0.28;100.00;151300.41;4990169;28;20509;-91
2023/01/28 01:52:24;;;;;;;10.13;6.77;;;;;;;-0.31;100.00;151291.41;4979221;28;20453;-92
2023/01/28 01:54:53;;;;;;;8.50;5.80;;;;;;;-0.25;100.00;151308.09;4976616;28;20828;-92
2023/01/28 01:57:24;;;;;;;7.87;5.80;;;;;;;-0.28;100.00;151300.41;4973535;28;20546;-91
2023/01/28 01:59:51;;;;;;;10.10;6.23;;;;;;;-0.26;100.00;151305.50;4986161;28;20485;-92
2023/01/28 02:02:18;;;;;;;7.97;6.10;;;;;;;-0.29;100.00;151296.56;4992169;28;20446;-91
2023/01/28 02:04:46;;;;;;;8.37;5.50;;;;;;;-0.28;100.00;151300.41;4990885;28;20474;-91
2023/01/28 02:07:16;;;;;;;8.70;5.63;;;;;;;-0.23;100.00;151313.22;4975463;28;20558;-91
2023/01/28 02:09:43;;;;;;;9.97;6.27;;;;;;;-0.29;100.00;151297.81;4989330;28;20454;-91
2023/01/28 02:12:13;;;;;;;7.00;5.00;;;;;;;-0.31;100.00;151292.69;4991765;28;20437;-92
2023/01/28 02:14:42;;;;;;;8.37;5.60;;;;;;;-0.28;100.00;151300.41;4991990;28;20563;-91
2023/01/28 02:17:09;;;;;;;7.73;5.83;;;;;;;-0.17;100.00;151328.63;4989954;28;21041;-92
2023/01/28 02:19:38;;;;;;;7.00;5.23;;;;;;;-0.25;100.00;151308.09;4992075;28;20552;-90
2023/01/28 02:22:30;;;;;;;9.20;6.13;;;;;;;-0.22;100.00;151315.81;4979147;28;20456;-92
2023/01/28 02:25:12;;;;;;;8.37;5.07;;;;;;;-0.23;100.00;151313.22;4968675;28;20508;-91
2023/01/28 02:28:06;;;;;;;8.73;5.57;;;;;;;-0.31;100.00;151292.69;4983800;28;20955;-91
2023/01/28 02:30:36;;;;;;;9.10;5.30;;;;;;;-0.26;100.00;151305.50;4971229;28;20456;-91
2023/01/28 02:33:06;;;;;;;6.03;5.10;;;;;;;-0.20;100.00;151320.91;4980806;28;20996;-92
2023/01/28 02:35:38;;;;;;;6.83;5.13;;;;;;;-0.22;100.00;151315.81;4987999;28;20457;-91
2023/01/28 02:38:07;;;;;;;6.97;4.90;;;;;;;-0.22;100.00;151315.81;4977879;28;21101;-91
2023/01/28 02:41:00;;;;;;;7.73;5.57;;;;;;;-0.24;100.00;151309.38;4990706;28;20561;-91
2023/01/28 02:43:31;;;;;;;6.93;5.33;;;;;;;-0.24;100.00;151310.63;4982061;28;20619;-91
2023/01/28 02:48:42;;;;;;;6.73;4.73;;;;;;;-0.21;100.00;151318.34;4985879;28;20588;-91
2023/01/28 02:51:17;;;;;;;6.80;4.80;;;;;;;-0.15;100.00;151333.75;4992022;28;20462;-92
2023/01/28 02:53:48;;;;;;;7.47;5.57;;;;;;;-0.20;100.00;151320.91;4991169;28;20829;-91
2023/01/28 02:56:21;;;;;;;9.70;5.47;;;;;;;-0.21;100.00;151318.34;4975081;28;20527;-92
2023/01/28 02:58:56;;;;;;;8.87;6.07;;;;;;;-0.16;100.00;151331.16;4962364;28;20576;-91
2023/01/28 03:01:25;;;;;;;8.20;4.90;;;;;;;-0.21;100.00;151317.03;4991964;28;20479;-92
2023/01/28 03:03:58;;;;;;;7.00;5.30;;;;;;;-0.17;100.00;151328.63;4973372;28;20731;-91
2023/01/28 03:06:28;;;;;;;6.90;5.13;;;;;;;-0.21;100.00;151318.34;4972872;28;21038;-91
2023/01/28 03:36:49;;;;;;;8.70;5.93;;;;;;;-0.30;100.00;151295.28;5000898;28;20457;-91
2023/01/28 03:39:35;;;;;;;9.57;6.17;;;;;;;-0.27;100.00;151302.97;4988986;28;20986;-91
2023/01/28 03:42:05;;;;;;;9.73;7.33;;;;;;;-0.31;100.00;151292.69;4973931;28;20515;-91
2023/01/28 03:44:55;;;;;;;8.30;6.60;;;;;;;-0.30;100.00;151293.97;4969687;28;20482;-91
2023/01/28 03:47:25;;;;;;;11.17;7.57;;;;;;;-0.31;100.00;151291.41;4988875;28;20453;-92
2023/01/28 03:49:54;;;;;;;11.10;6.90;;;;;;;-0.34;100.00;151283.69;4974056;28;20652;-91
2023/01/28 03:52:23;;;;;;;10.07;7.33;;;;;;;-0.33;100.00;151286.28;4970607;28;20467;-91
2023/01/28 03:54:51;;;;;;;12.10;7.87;;;;;;;-0.33;100.00;151287.56;4972368;28;20456;-91
2023/01/28 03:57:20;;;;;;;11.00;7.30;;;;;;;-0.27;100.00;151302.97;4971744;28;20499;-91
2023/01/28 03:59:48;;;;;;;12.07;8.60;;;;;;;-0.29;100.00;151297.81;4988097;28;20523;-91
2023/01/28 04:02:16;;;;;;;11.30;7.90;;;;;;;-0.37;100.00;151277.28;4988356;28;20454;-91
2023/01/28 04:04:44;;;;;;;10.47;8.00;;;;;;;-0.31;100.00;151292.69;4969316;28;20468;-91
2023/01/28 04:07:14;;;;;;;10.00;7.80;;;;;;;-0.31;100.00;151292.69;4988633;28;20540;-91
2023/01/28 04:10:00;;;;;;;10.87;7.20;;;;;;;-0.30;100.00;151295.28;4991238;28;20454;-91
2023/01/28 04:12:43;;;;;;;12.30;7.70;;;;;;;-0.27;100.00;151301.69;4979699;28;20839;-91
2023/01/28 04:15:15;;;;;;;10.27;8.07;;;;;;;-0.31;100.00;151292.69;4987530;28;20493;-91
2023/01/28 04:17:47;;;;;;;12.70;7.47;;;;;;;-0.30;100.00;151295.28;4978485;28;20479;-90
2023/01/28 04:20:21;;;;;;;9.87;6.70;;;;;;;-0.21;100.00;151317.03;4977190;28;20887;-91
2023/01/28 04:22:48;;;;;;;9.87;6.63;;;;;;;-0.22;100.00;151315.81;4990677;28;20859;-91
2023/01/28 04:25:16;;;;;;;10.67;7.70;;;;;;;-0.23;100.00;151311.94;4979235;28;20949;-91
2023/01/28 04:27:43;;;;;;;10.30;7.57;;;;;;;-0.27;100.00;151301.69;4974150;28;20449;-91
2023/01/28 04:30:16;;;;;;;11.50;7.50;;;;;;;-0.25;100.00;151308.09;4988484;28;20457;-92
2023/01/28 04:32:49;;;;;;;11.10;8.10;;;;;;;-0.23;100.00;151311.94;4988715;28;20466;-91
2023/01/28 04:35:42;;;;;;;11.87;8.00;;;;;;;-0.26;100.00;151305.50;4996955;28;20455;-91
2023/01/28 04:38:21;;;;;;;12.37;7.80;;;;;;;-0.20;100.00;151320.91;4992593;28;20507;-91
2023/01/28 04:40:59;;;;;;;10.83;7.50;;;;;;;-0.29;100.00;151297.81;4984407;28;20878;-91
2023/01/28 04:43:29;;;;;;;9.60;7.90;;;;;;;-0.25;100.00;151308.09;4981377;28;20481;-91
2023/01/28 04:46:15;;;;;;;14.07;8.27;;;;;;;-0.24;100.00;151310.63;4993414;28;20461;-90
2023/01/28 04:49:02;;;;;;;15.37;9.20;;;;;;;-0.25;100.00;151306.81;4981455;28;20946;-91
2023/01/28 04:51:53;;;;;;;12.23;8.70;;;;;;;-0.30;100.00;151295.28;4984919;28;20467;-90
2023/01/28 04:54:20;;;;;;;11.60;8.77;;;;;;;-0.34;100.00;151284.97;4994786;28;20446;-90
2023/01/28 04:56:47;;;;;;;10.60;7.97;;;;;;;-0.35;100.00;151282.44;4986110;28;20813;-91
2023/01/28 04:59:13;;;;;;;14.17;9.30;;;;;;;-0.32;100.00;151288.84;4991268;28;20997;-91
2023/01/28 05:01:40;;;;;;;13.17;9.00;;;;;;;-0.27;100.00;151301.69;4970580;28;20484;-90
2023/01/28 05:04:08;;;;;;;12.50;9.77;;;;;;;-0.29;100.00;151297.81;4971770;28;20451;-90
2023/01/28 05:06:37;;;;;;;11.50;8.37;;;;;;;-0.28;100.00;151300.41;4989083;28;21043;-90
2023/01/28 05:09:10;;;;;;;11.63;8.77;;;;;;;-0.27;100.00;151302.97;4973304;28;20453;-90
2023/01/28 05:11:37;;;;;;;11.90;8.40;;;;;;;-0.24;100.00;151310.63;4986728;28;20703;-90
2023/01/28 05:14:05;;;;;;;12.10;8.60;;;;;;;-0.31;100.00;151292.69;4975863;28;20444;-91
2023/01/28 05:16:45;;;;;;;12.93;9.67;;;;;;;-0.28;100.00;151300.41;4993373;28;20464;-90
2023/01/28 05:19:12;;;;;;;13.40;9.63;;;;;;;-0.30;100.00;151295.28;4990719;28;20855;-90
2023/01/28 05:21:41;;;;;;;15.13;9.37;;;;;;;-0.29;100.00;151297.81;4989486;28;20489;-91
2023/01/28 05:24:26;;;;;;;13.70;9.93;;;;;;;-0.33;100.00;151287.56;4967031;28;20444;-91
2023/01/28 05:26:53;;;;;;;15.10;10.27;;;;;;;-0.27;100.00;151301.69;4975369;28;20463;-92
2023/01/28 05:29:20;;;;;;;12.10;8.90;;;;;;;-0.29;100.00;151296.56;4972734;28;20450;-91
2023/01/28 05:31:47;;;;;;;15.83;9.60;;;;;;;-0.34;100.00;151284.97;4993113;28;20458;-91
2023/01/28 05:34:15;;;;;;;13.80;9.23;;;;;;;-0.36;100.00;151279.88;4975675;28;20949;-92
2023/01/28 05:36:42;;;;;;;11.07;8.50;;;;;;;-0.34;100.00;151284.97;4969717;28;20450;-91
2023/01/28 05:39:30;;;;;;;10.90;8.43;;;;;;;-0.28;100.00;151300.41;4989561;28;20450;-91
2023/01/28 05:41:57;;;;;;;14.93;9.43;;;;;;;-0.29;100.00;151297.81;4989228;28;20485;-90
2023/01/28 05:44:23;;;;;;;11.90;8.40;;;;;;;-0.31;100.00;151292.69;4974764;28;20477;-92
2023/01/28 05:47:10;;;;;;;11.57;7.77;;;;;;;-0.33;100.00;151286.28;4978060;28;20471;-91
2023/01/28 05:49:59;;;;;;;12.53;9.30;;;;;;;-0.31;100.00;151291.41;4994034;28;20451;-91
2023/01/28 05:52:49;;;;;;;13.77;9.23;;;;;;;-0.27;100.00;151301.69;4973403;28;20479;-91
2023/01/28 05:55:25;;;;;;;12.97;9.10;;;;;;;-0.20;100.00;151320.91;4990729;28;20441;-91
2023/01/28 05:57:52;;;;;;;12.20;7.70;;;;;;;-0.26;100.00;151304.22;4993243;28;20868;-91
2023/01/28 06:00:22;;;;;;;13.00;9.07;;;;;;;-0.26;100.00;151305.50;4971309;28;20529;-91
2023/01/28 06:02:50;;;;;;;14.00;9.00;;;;;;;-0.30;100.00;151295.28;5007555;28;21003;-91
2023/01/28 06:05:17;;;;;;;11.70;7.97;;;;;;;-0.30;100.00;151295.28;4989799;28;20462;-91
2023/01/28 06:07:44;;;;;;;14.60;9.27;;;;;;;-0.27;100.00;151302.97;4977315;28;20968;-91
2023/01/28 06:10:11;;;;;;;11.30;8.53;;;;;;;-0.26;100.00;151305.50;4987028;28;20467;-91
2023/01/28 06:12:40;;;;;;;13.60;9.13;;;;;;;-0.26;100.00;151305.50;4990502;28;20552;-91
2023/01/28 06:15:27;;;;;;;10.50;8.03;;;;;;;-0.23;100.00;151311.94;4983128;28;20456;-91
2023/01/28 06:18:32;;;;;;;10.40;7.93;;;;;;;-0.25;100.00;151308.09;4948469;28;20463;-90
2023/01/28 06:20:59;;;;;;;13.30;8.43;;;;;;;-0.21;100.00;151318.34;4932796;29;20481;-92
2023/01/28 06:23:25;;;;;;;12.73;9.63;;;;;;;-0.24;100.00;151310.63;4972404;28;21032;-91
2023/01/28 06:25:54;;;;;;;12.30;8.43;;;;;;;-0.17;100.00;151327.34;4972124;28;20472;-91
2023/01/28 06:28:23;;;;;;;11.43;8.90;;;;;;;-0.17;100.00;151327.34;4972532;28;20462;-91
2023/01/28 06:30:49;;;;;;;12.20;8.50;;;;;;;-0.24;100.00;151309.38;4981778;28;20491;-91
2023/01/28 06:33:16;;;;;;;12.90;8.60;;;;;;;-0.23;100.00;151313.22;4990612;28;20537;-92
2023/01/28 06:35:43;;;;;;;12.80;8.53;;;;;;;-0.26;100.00;151304.22;4990353;28;20496;-92
2023/01/28 06:38:10;;;;;;;12.57;8.33;;;;;;;-0.31;100.00;151291.41;5002854;28;20527;-92
2023/01/28 06:40:37;;;;;;;12.47;9.03;;;;;;;-0.32;100.00;151290.09;4983879;28;20452;-92
2023/01/28 06:43:04;;;;;;;12.43;8.23;;;;;;;-0.26;100.00;151304.22;4982528;28;20476;-91
2023/01/28 06:45:32;;;;;;;12.23;8.80;;;;;;;-0.31;100.00;151292.69;4985998;28;20552;-91
2023/01/28 06:47:59;;;;;;;14.00;8.63;;;;;;;-0.30;100.00;151295.28;4987741;28;20485;-91
2023/01/28 06:50:26;;;;;;;17.23;10.63;;;;;;;-0.21;100.00;151317.03;4989205;28;20450;-91
2023/01/28 06:52:53;;;;;;;12.10;9.27;;;;;;;-0.23;100.00;151311.94;4988643;28;21197;-91
2023/01/28 06:55:19;;;;;;;10.90;8.10;;;;;;;-0.27;100.00;151301.69;4987345;28;20460;-91
2023/01/28 06:57:46;;;;;;;14.10;9.07;;;;;;;-0.26;100.00;151304.22;4988327;28;20468;-91
2023/01/28 07:00:15;;;;;;;12.70;9.97;;;;;;;-0.22;100.00;151315.81;4986680;28;20481;-92
2023/01/28 07:02:43;;;;;;;15.07;9.70;;;;;;;-0.25;100.00;151306.81;4986579;28;20567;-91
2023/01/28 07:05:10;;;;;;;14.53;8.93;;;;;;;-0.22;100.00;151314.50;4984688;28;20456;-92
2023/01/28 07:07:37;;;;;;;14.60;9.40;;;;;;;-0.22;100.00;151314.50;4988959;28;20481;-92
2023/01/28 07:10:04;;;;;;;15.60;9.60;;;;;;;-0.23;100.00;151313.22;4986562;28;21024;-92
2023/01/28 07:12:31;;;;;;;11.60;8.93;;;;;;;-0.19;100.00;151323.50;5001147;28;20773;-91
2023/01/28 07:14:59;;;;;;;15.10;9.80;;;;;;;-0.23;100.00;151313.22;4983893;28;20474;-92
2023/01/28 07:17:25;;;;;;;13.83;9.40;;;;;;;-0.16;100.00;151331.16;4987058;28;20527;-91
2023/01/28 07:19:53;;;;;;;15.20;10.10;;;;;;;-0.20;100.00;151320.91;4988737;28;20494;-91
2023/01/28 07:22:20;;;;;;;13.90;9.73;;;;;;;-0.17;100.00;151327.34;4983438;28;20995;-92
2023/01/28 07:24:47;;;;;;;14.30;9.57;;;;;;;-0.14;100.00;151335.03;4984345;28;20453;-91
2023/01/28 07:27:14;;;;;;;12.13;9.00;;;;;;;-0.13;100.00;151338.88;4969144;28;20455;-91
2023/01/28 07:29:40;;;;;;;12.33;9.00;;;;;;;-0.11;100.00;151344.00;4983942;28;20459;-91
2023/01/28 07:32:07;;;;;;;10.80;8.53;;;;;;;-0.17;100.00;151327.34;4984992;28;20450;-91
2023/01/28 07:34:36;;;;;;;13.13;9.10;;;;;;;-0.11;100.00;151344.00;4988493;28;20454;-91
2023/01/28 07:37:05;;;;;;;12.50;9.67;;;;;;;-0.09;100.00;151349.16;4984720;28;20459;-91
2023/01/28 07:39:32;;;;;;;14.10;9.50;;;;;;;-0.08;100.00;151350.44;5001804;28;20985;-90
2023/01/28 07:41:58;;;;;;;13.40;9.63;;;;;;;-0.06;100.00;151356.88;4988176;28;20489;-92
2023/01/28 07:44:39;;;;;;;14.10;9.10;;;;;;;-0.02;100.00;151367.09;4998220;28;20485;-91
2023/01/28 07:47:06;;;;;;;14.57;10.33;;;;;;;-0.06;100.00;151356.88;4972569;28;20549;-91
2023/01/28 07:49:33;;;;;;;15.00;10.43;;;;;;;-0.08;100.00;151350.44;4989094;28;20810;-91
2023/01/28 07:52:00;;;;;;;13.93;10.23;;;;;;;-0.09;100.00;151347.88;4987696;28;20621;-92
2023/01/28 07:54:29;;;;;;;12.70;9.50;;;;;;;-0.09;100.00;151349.16;4988178;28;20462;-92
2023/01/28 07:56:56;;;;;;;16.10;10.50;;;;;;;-0.10;100.00;151345.28;4969579;28;20463;-91
2023/01/28 07:59:22;;;;;;;14.60;10.13;;;;;;;0.03;100.00;151377.41;4993076;28;20492;-91
2023/01/28 08:01:49;;;;;;;14.77;10.90;;;;;;;-0.01;100.00;151369.69;4985302;28;20543;-91
2023/01/28 08:04:16;;;;;;;16.73;10.60;;;;;;;0.00;100.00;151370.97;4989773;28;20444;-91
2023/01/28 08:06:42;;;;;;;13.30;9.90;;;;;;;0.02;100.00;151374.81;4997751;28;20464;-90
2023/01/28 08:09:09;;;;;;;14.10;10.40;;;;;;;0.13;100.00;151403.06;5013146;28;20479;-88
2023/01/28 08:11:39;;;;;;;14.50;9.63;;;;;;;0.14;100.00;151405.59;4999727;28;20464;-91
2023/01/28 08:14:06;;;;;;;17.33;11.77;;;;;;;0.11;100.00;151397.94;4991263;28;20445;-91
2023/01/28 08:16:33;;;;;;;14.57;10.77;;;;;;;0.15;100.00;151409.47;4973767;28;20466;-91
2023/01/28 08:19:00;;;;;;;14.63;10.70;;;;;;;0.08;100.00;151390.22;4974631;28;20453;-91
2023/01/28 08:21:26;;;;;;;13.70;10.17;;;;;;;0.11;100.00;151397.94;4989505;28;20456;-90
2023/01/28 08:23:53;;;;;;;14.73;10.07;;;;;;;0.05;100.00;151382.50;4991748;28;20801;-91
2023/01/28 08:26:20;;;;;;;14.93;9.80;;;;;;;0.11;100.00;151397.94;4985338;28;20456;-91
2023/01/28 08:28:48;;;;;;;16.03;10.70;;;;;;;0.11;100.00;151399.16;4994477;28;20536;-91
2023/01/28 08:31:15;;;;;;;15.80;10.37;;;;;;;0.09;100.00;151392.75;4994339;28;20548;-90
2023/01/28 08:33:42;;;;;;;13.07;9.47;;;;;;;0.14;100.00;151405.59;4993133;28;20461;-90
2023/01/28 08:36:09;;;;;;;14.23;10.20;;;;;;;0.22;100.00;151426.13;4986170;28;20451;-91
2023/01/28 08:38:36;;;;;;;13.50;10.50;;;;;;;0.21;100.00;151424.88;4990117;28;20511;-90
2023/01/28 08:41:02;;;;;;;12.30;9.90;;;;;;;0.21;100.00;151423.59;4975881;28;20473;-91
2023/01/28 08:43:29;;;;;;;17.10;10.10;;;;;;;0.18;100.00;151415.88;4973000;28;20514;-90
2023/01/28 08:45:57;;;;;;;16.67;10.80;;;;;;;0.19;100.00;151418.41;4991970;28;20450;-90
2023/01/28 08:48:24;;;;;;;16.00;10.60;;;;;;;0.24;100.00;151431.28;4985732;28;20444;-90
2023/01/28 08:50:50;;;;;;;17.03;11.73;;;;;;;0.24;100.00;151431.28;4983027;28;20806;-90
2023/01/28 08:53:19;;;;;;;22.93;11.80;;;;;;;0.24;100.00;151431.28;4987897;28;20450;-90
2023/01/28 08:55:46;;;;;;;17.10;11.20;;;;;;;0.28;100.00;151441.53;4988437;28;20567;-90
2023/01/28 08:58:15;;;;;;;14.53;10.00;;;;;;;0.32;100.00;151453.06;4987987;28;20513;-90
2023/01/28 09:00:42;;;;;;;14.97;11.10;;;;;;;0.33;100.00;151454.38;4991259;28;20456;-89
2023/01/28 09:03:10;;;;;;;14.57;10.07;;;;;;;0.34;100.00;151456.97;4990343;28;21005;-89
2023/01/28 09:05:38;;;;;;;17.67;11.87;;;;;;;0.40;100.00;151472.31;4986984;28;20449;-89
2023/01/28 09:08:06;;;;;;;14.47;10.13;;;;;;;0.42;100.00;151477.50;4981716;28;20488;-88
2023/01/28 09:10:33;;;;;;;16.73;11.60;;;;;;;0.32;100.00;151451.84;4969856;28;20442;-89
2023/01/28 09:13:04;;;;;;;17.00;12.10;;;;;;;0.39;100.00;151469.78;4987647;28;20556;-89
2023/01/28 09:15:31;;;;;;;15.50;11.37;;;;;;;0.42;100.00;151477.50;4986534;28;20454;-89
2023/01/28 09:17:58;;;;;;;17.70;12.67;;;;;;;0.47;100.00;151490.34;4971425;28;20514;-89
2023/01/28 09:20:26;;;;;;;19.67;12.30;;;;;;;0.50;100.00;151499.28;4988399;28;20451;-89
2023/01/28 09:22:54;;;;;;;15.53;10.37;;;;;;;0.59;100.00;151522.41;4989840;28;20473;-91
2023/01/28 09:25:21;;;;;;;15.47;11.10;;;;;;;0.54;100.00;151508.28;4990434;28;20537;-91
2023/01/28 09:27:48;;;;;;;13.60;10.50;;;;;;;0.58;100.00;151519.81;4989687;28;20450;-91
2023/01/28 09:30:15;;;;;;;15.00;11.73;;;;;;;0.61;100.00;151526.25;5004266;28;20457;-91
2023/01/28 09:32:42;;;;;;;16.30;11.73;;;;;;;0.57;100.00;151516.00;4988269;28;20457;-90
2023/01/28 09:35:09;;;;;;;14.63;10.33;;;;;;;0.54;100.00;151509.59;4988427;28;20559;-90
2023/01/28 09:37:37;;;;;;;15.53;11.43;;;;;;;0.60;100.00;151523.72;4964338;28;20982;-90
2023/01/28 09:40:05;;;;;;;17.77;11.30;;;;;;;0.63;100.00;151531.41;4982581;28;20510;-90
2023/01/28 09:42:42;;;;;;;15.13;10.57;;;;;;;0.65;100.00;151536.53;4987806;28;20483;-89
2023/01/28 09:45:14;;;;;;;14.60;10.37;;;;;;;0.68;100.00;151542.97;4980666;28;20868;-88
2023/01/28 09:47:48;;;;;;;13.00;10.43;;;;;;;0.67;100.00;151540.38;4969854;28;20455;-88
2023/01/28 09:50:18;;;;;;;15.20;11.40;;;;;;;0.69;100.00;151546.78;4984037;28;20496;-88
2023/01/28 09:52:46;;;;;;;18.67;12.00;;;;;;;0.73;100.00;151557.09;4983877;28;20453;-87
2023/01/28 09:55:20;;;;;;;14.20;10.60;;;;;;;0.71;100.00;151551.97;4985145;28;20493;-88
2023/01/28 09:57:50;;;;;;;17.63;12.40;;;;;;;0.77;100.00;151567.34;4986883;28;20817;-87
2023/01/28 10:00:18;;;;;;;17.53;12.23;;;;;;;0.79;100.00;151571.22;4985244;28;20854;-87
2023/01/28 10:02:56;;;;;;;13.83;11.30;;;;;;;0.76;100.00;151564.81;4989431;28;21048;-87
2023/01/28 10:05:28;;;;;;;15.97;11.70;;;;;;;0.80;100.00;151573.75;4984326;28;20762;-87
2023/01/28 10:08:04;;;;;;;15.03;10.90;;;;;;;0.85;100.00;151586.63;4981708;28;20459;-87
2023/01/28 10:10:33;;;;;;;19.10;13.97;;;;;;;0.96;100.00;151614.84;4981824;28;20920;-87
2023/01/28 10:13:07;;;;;;;17.00;11.67;;;;;;;0.84;100.00;151585.34;4985292;28;20462;-87
2023/01/28 10:15:54;;;;;;;21.47;13.97;;;;;;;0.83;100.00;151582.75;4983230;28;20808;-86
2023/01/28 10:18:29;;;;;;;18.47;12.27;;;;;;;0.85;100.00;151587.88;4983690;28;20446;-86
2023/01/28 10:21:01;;;;;;;16.20;11.53;;;;;;;0.90;100.00;151600.72;4984375;28;20475;-87
2023/01/28 10:23:34;;;;;;;24.93;15.80;;;;;;;0.90;100.00;151600.72;4986480;28;20477;-86
2023/01/28 10:26:05;;;;;;;24.27;16.23;;;;;;;0.90;100.00;151599.47;4985520;28;20469;-86
2023/01/28 10:28:34;;;;;;;24.87;17.63;;;;;;;0.87;100.00;151593.06;4977432;28;21215;-86
2023/01/28 10:31:01;;;;;;;20.00;12.47;;;;;;;0.87;100.00;151593.06;4976255;28;20493;-87
2023/01/28 10:33:35;;;;;;;19.53;13.57;;;;;;;0.89;100.00;151596.88;4985019;28;20445;-86
2023/01/28 10:36:03;;;;;;;18.20;12.07;;;;;;;0.88;100.00;151594.31;4982273;28;20603;-87
2023/01/28 10:38:31;;;;;;;14.47;10.47;;;;;;;0.78;100.00;151569.91;4980669;28;20497;-86
2023/01/28 10:41:01;;;;;;;19.03;12.80;;;;;;;0.73;100.00;151557.09;4983707;28;20533;-86
2023/01/28 10:43:31;;;;;;;17.23;11.93;;;;;;;0.85;100.00;151587.88;4989003;28;20492;-87
2023/01/28 10:46:03;;;;;;;19.90;12.47;;;;;;;0.92;100.00;151605.91;4984222;28;20454;-87
2023/01/28 10:48:33;;;;;;;14.83;10.90;;;;;;;0.81;100.00;151577.63;5003509;28;20871;-87
2023/01/28 10:51:04;;;;;;;16.40;10.70;;;;;;;0.83;100.00;151582.75;4989369;28;21046;-87
2023/01/28 10:53:37;;;;;;;15.63;11.53;;;;;;;0.82;100.00;151578.94;4989900;28;20438;-86
2023/01/28 10:56:05;;;;;;;21.27;13.33;;;;;;;0.81;100.00;151576.34;4986283;28;20458;-87
2023/01/28 10:58:35;;;;;;;18.67;11.90;;;;;;;0.83;100.00;151582.75;4986792;28;20507;-87
2023/01/28 11:01:03;;;;;;;20.70;14.40;;;;;;;0.86;100.00;151590.47;4980612;28;20783;-86
2023/01/28 11:03:30;;;;;;;16.23;11.00;;;;;;;0.86;100.00;151590.47;4986865;28;20476;-86
2023/01/28 11:05:58;;;;;;;18.00;12.07;;;;;;;0.84;100.00;151584.06;4984272;28;21033;-87
2023/01/28 11:08:26;;;;;;;18.53;12.83;;;;;;;0.89;100.00;151598.19;4984422;28;20458;-87
2023/01/28 11:10:56;;;;;;;18.67;11.30;;;;;;;0.90;100.00;151600.72;4999896;28;20460;-87
2023/01/28 11:13:25;;;;;;;16.03;10.90;;;;;;;0.83;100.00;151581.47;4986460;28;20511;-87
2023/01/28 11:16:00;;;;;;;14.67;10.60;;;;;;;0.89;100.00;151598.19;4986136;28;20446;-87
2023/01/28 11:18:29;;;;;;;14.43;10.30;;;;;;;0.86;100.00;151590.47;4983834;28;20443;-87
2023/01/28 11:20:57;;;;;;;16.50;12.10;;;;;;;0.88;100.00;151595.59;4989207;28;20545;-87
2023/01/28 11:23:26;;;;;;;21.90;12.20;;;;;;;0.89;100.00;151598.19;4983440;28;20861;-86
2023/01/28 11:26:03;;;;;;;21.90;12.90;;;;;;;0.89;100.00;151598.19;4982904;28;20522;-87
2023/01/28 11:28:30;;;;;;;19.77;11.40;;;;;;;0.84;100.00;151585.34;4992049;28;20536;-86
2023/01/28 11:30:58;;;;;;;15.93;10.37;;;;;;;0.87;100.00;151591.75;4989983;28;20449;-86
2023/01/28 11:33:30;;;;;;;19.17;12.87;;;;;;;0.84;100.00;151584.06;4989514;28;20442;-87
2023/01/28 11:36:03;;;;;;;21.50;13.67;;;;;;;0.89;100.00;151598.19;4989784;28;20591;-87
2023/01/28 11:38:30;;;;;;;25.50;15.60;;;;;;;0.89;100.00;151596.88;4985592;28;20483;-86
2023/01/28 11:40:59;;;;;;;21.80;14.30;;;;;;;0.88;100.00;151594.31;4989714;28;20611;-87
2023/01/28 11:43:29;;;;;;;21.07;14.60;;;;;;;0.91;100.00;151603.31;4987993;28;20490;-86
2023/01/28 11:46:03;;;;;;;21.07;13.23;;;;;;;0.92;100.00;151605.91;4987950;28;20473;-87
2023/01/28 11:48:35;;;;;;;18.07;12.53;;;;;;;0.93;100.00;151608.44;4989669;28;20454;-87
2023/01/28 11:51:05;;;;;;;16.47;12.13;;;;;;;0.99;100.00;151623.84;4990013;28;20551;-87
2023/01/28 11:53:40;;;;;;;19.63;11.90;;;;;;;0.96;100.00;151616.16;4991781;28;20525;-87
2023/01/28 11:56:48;;;;;;;24.10;14.00;;;;;;;0.99;100.00;151622.56;4986711;28;20507;-86